Time;durP1;ratioP1;P1;durP2;ratioP2;P2;SDS_P1;SDS_P2;PMS_P1;PMS_P2;Temp;Humidity;BMP_temperature;BMP_pressure;BME280_temperature;BME280_humidity;BME280_pressure;Samples;Min_cycle;Max_cycle;Signal;HPM_P1;HPM_P2
2024/04/22 00:37:19;;;;;;;0.90;0.80;;;;;;;0.03;84.74;101875.34;6140291;23;20260;-78
2024/04/22 00:41:18;;;;;;;0.90;0.73;;;;;;;0.02;84.62;101881.63;6222954;23;20313;-79
2024/04/22 00:44:46;;;;;;;0.80;0.50;;;;;;;-0.09;85.83;101877.06;6277044;22;20338;-79
2024/04/22 00:48:40;;;;;;;1.55;0.90;;;;;;;-0.30;86.61;101870.63;6331991;22;20273;-80
2024/04/22 00:52:44;;;;;;;0.80;0.60;;;;;;;0.06;86.15;101873.31;6313573;22;20224;-79
2024/04/22 01:04:14;;;;;;;1.10;0.90;;;;;;;0.00;88.85;101874.59;6530807;22;20233;-80
2024/04/22 01:18:51;;;;;;;0.80;0.60;;;;;;;-0.26;91.04;101866.81;6534586;22;20218;-78
2024/04/22 01:21:27;;;;;;;2.08;1.40;;;;;;;-0.20;91.71;101871.69;6532710;22;20228;-79
2024/04/22 01:23:56;;;;;;;2.55;1.17;;;;;;;-0.21;90.94;101870.84;6537968;22;20224;-79
2024/04/22 01:26:29;;;;;;;1.10;0.90;;;;;;;-0.16;91.38;101874.03;6534804;22;20271;-78
2024/04/22 01:28:57;;;;;;;0.80;0.70;;;;;;;-0.40;91.34;101864.25;6485882;22;20240;-78
2024/04/22 01:31:27;;;;;;;2.67;1.25;;;;;;;-0.52;92.31;101866.81;6531811;22;20695;-79
2024/04/22 01:33:55;;;;;;;1.02;0.70;;;;;;;-0.55;92.95;101866.19;6533511;22;20576;-79
2024/04/22 01:36:29;;;;;;;1.65;0.70;;;;;;;-0.50;93.51;101864.91;6488644;22;20262;-79
2024/04/22 01:38:58;;;;;;;1.55;1.45;;;;;;;-0.39;93.66;101869.50;6536703;22;20248;-80
2024/04/22 01:41:29;;;;;;;2.00;1.90;;;;;;;-0.66;93.79;101869.59;6494786;22;20301;-80
2024/04/22 01:43:57;;;;;;;0.80;0.50;;;;;;;-0.68;94.85;101862.69;6531955;22;20752;-79
2024/04/22 01:46:28;;;;;;;2.15;0.82;;;;;;;-0.63;95.28;101871.19;6530773;22;20668;-79
2024/04/22 01:48:56;;;;;;;0.80;0.55;;;;;;;-0.64;94.91;101859.72;6526829;22;20283;-79
2024/04/22 01:51:30;;;;;;;1.65;0.70;;;;;;;-0.67;95.18;101862.56;6484635;22;20228;-78
2024/04/22 01:53:58;;;;;;;0.80;0.50;;;;;;;-0.66;95.51;101858.09;6530265;22;20233;-77
2024/04/22 01:56:29;;;;;;;1.65;0.95;;;;;;;-0.70;96.02;101854.81;6546017;22;20210;-79
2024/04/22 01:58:58;;;;;;;1.33;1.17;;;;;;;-0.81;96.88;101862.66;6554404;21;20272;-78
2024/04/22 02:30:59;;;;;;;2.22;1.77;;;;;;;-0.74;99.97;101849.81;6493467;22;20530;-78
2024/04/22 02:33:27;;;;;;;0.80;0.65;;;;;;;-0.31;99.38;101852.97;6528465;22;20229;-78
2024/04/22 02:35:58;;;;;;;0.80;0.50;;;;;;;-0.36;97.68;101850.66;6527173;22;20621;-78
2024/04/22 02:38:27;;;;;;;0.80;0.50;;;;;;;-0.48;97.56;101841.72;6530195;22;20239;-78
2024/04/22 02:40:58;;;;;;;1.23;1.13;;;;;;;-0.80;97.96;101840.47;6529478;22;20742;-78
2024/04/22 02:43:26;;;;;;;0.80;0.63;;;;;;;-0.88;98.90;101838.34;6529409;22;20336;-79
2024/04/22 02:46:00;;;;;;;4.10;0.80;;;;;;;-1.02;99.08;101834.94;6484938;22;20704;-77
2024/04/22 02:48:28;;;;;;;1.90;0.80;;;;;;;-1.07;100.00;101831.75;6529110;22;20252;-78
2024/04/22 02:51:04;;;;;;;1.38;0.80;;;;;;;-0.99;100.00;101832.06;6531022;22;20352;-78
2024/04/22 02:53:32;;;;;;;1.00;0.63;;;;;;;-0.96;100.00;101834.50;6529604;22;20228;-78
2024/04/22 02:56:04;;;;;;;4.50;1.10;;;;;;;-0.56;100.00;101825.47;6529641;22;20277;-79
2024/04/22 02:58:32;;;;;;;1.08;0.98;;;;;;;-0.57;99.82;101831.72;6527198;22;20241;-78
2024/04/22 03:01:08;;;;;;;0.80;0.50;;;;;;;-0.68;99.43;101834.31;6530600;22;20551;-78
2024/04/22 03:03:36;;;;;;;1.70;0.82;;;;;;;-0.34;99.34;101832.78;6484912;22;20314;-77
2024/04/22 03:06:08;;;;;;;1.55;1.45;;;;;;;-0.31;98.50;101835.22;6532473;22;20274;-77
2024/04/22 03:08:37;;;;;;;1.10;0.90;;;;;;;-0.51;98.49;101827.78;6557763;21;20232;-80
2024/04/22 03:11:09;;;;;;;0.80;0.60;;;;;;;-0.19;98.63;101836.13;6556956;21;20269;-78
2024/04/22 03:13:37;;;;;;;0.90;0.80;;;;;;;-0.41;98.35;101830.66;6557239;21;20216;-81
2024/04/22 03:16:11;;;;;;;0.80;0.50;;;;;;;-0.63;98.95;101824.16;6556830;21;20288;-81
2024/04/22 03:18:39;;;;;;;2.28;1.40;;;;;;;-0.58;98.72;101829.19;6553283;21;20267;-77
2024/04/22 03:21:10;;;;;;;0.80;0.50;;;;;;;-0.72;100.00;101826.63;6550892;22;20221;-77
2024/04/22 03:23:38;;;;;;;0.80;0.50;;;;;;;-0.54;100.00;101831.53;6530562;22;20322;-78
2024/04/22 03:26:10;;;;;;;1.02;0.93;;;;;;;-0.65;99.32;101828.75;6529912;22;20260;-77
2024/04/22 03:28:39;;;;;;;0.90;0.70;;;;;;;-0.78;100.00;101827.06;6529128;22;20248;-78
2024/04/22 03:31:12;;;;;;;3.17;2.97;;;;;;;-0.95;100.00;101825.56;6484473;22;20229;-79
2024/04/22 03:33:41;;;;;;;1.05;0.95;;;;;;;-1.03;100.00;101825.25;6528655;22;20229;-79
2024/04/22 03:36:12;;;;;;;1.10;0.88;;;;;;;-1.22;100.00;101816.84;6529533;22;20224;-78
2024/04/22 03:38:43;;;;;;;0.80;0.50;;;;;;;-1.14;100.00;101814.50;6483754;22;20338;-79
2024/04/22 03:41:13;;;;;;;0.80;0.70;;;;;;;-1.18;100.00;101818.31;6529451;22;20225;-79
2024/04/22 03:43:42;;;;;;;2.45;2.35;;;;;;;-0.92;100.00;101809.44;6529659;22;20685;-80
2024/04/22 03:51:50;;;;;;;1.55;1.45;;;;;;;-0.54;100.00;101820.91;6537214;22;20223;-80
2024/04/22 03:54:21;;;;;;;3.45;1.10;;;;;;;-0.67;100.00;101820.03;6535744;22;20272;-79
2024/04/22 03:56:52;;;;;;;0.80;0.65;;;;;;;-0.63;100.00;101821.50;6539317;22;20280;-78
2024/04/22 03:59:23;;;;;;;0.80;0.50;;;;;;;-0.66;100.00;101824.41;6539718;22;20225;-78
2024/04/22 04:01:56;;;;;;;0.80;0.50;;;;;;;-0.77;100.00;101826.94;6537475;22;20268;-78
2024/04/22 04:04:24;;;;;;;0.80;0.50;;;;;;;-0.79;100.00;101836.84;6533909;22;20281;-79
2024/04/22 04:06:55;;;;;;;0.90;0.70;;;;;;;-0.77;100.00;101836.72;6533861;22;20277;-79
2024/04/22 04:09:24;;;;;;;0.80;0.68;;;;;;;-0.78;100.00;101833.25;6534835;22;20275;-77
2024/04/22 04:11:55;;;;;;;1.00;0.77;;;;;;;-0.84;100.00;101833.66;6534046;22;20525;-78
2024/04/22 04:14:23;;;;;;;1.15;1.05;;;;;;;-0.52;100.00;101840.22;6530198;22;20209;-79
2024/04/22 04:16:57;;;;;;;5.38;1.25;;;;;;;-0.31;99.96;101837.00;6529163;22;20271;-78
2024/04/22 04:19:25;;;;;;;1.45;1.35;;;;;;;0.66;94.80;101835.16;6531534;22;20244;-78
2024/04/22 04:21:57;;;;;;;0.95;0.85;;;;;;;1.76;90.54;101836.28;6537224;22;20228;-78
2024/04/22 04:24:26;;;;;;;1.00;0.80;;;;;;;2.56;82.66;101848.38;6489557;22;20232;-79
2024/04/22 04:26:56;;;;;;;0.80;0.50;;;;;;;3.22;79.45;101838.31;6541012;22;20225;-79
2024/04/22 04:29:25;;;;;;;1.70;1.60;;;;;;;3.66;74.97;101847.81;6545799;22;20213;-78
2024/04/22 04:31:58;;;;;;;3.30;0.90;;;;;;;3.72;72.27;101841.94;6549223;22;20214;-77
2024/04/22 04:34:27;;;;;;;0.80;0.60;;;;;;;3.74;72.00;101844.47;6548395;22;20210;-77
2024/04/22 04:36:58;;;;;;;0.80;0.50;;;;;;;4.05;70.65;101839.94;6547695;22;20288;-77
2024/04/22 04:39:26;;;;;;;0.95;0.85;;;;;;;4.49;68.35;101839.44;6501541;22;20697;-77
2024/04/22 04:41:57;;;;;;;0.80;0.50;;;;;;;4.39;68.29;101843.94;6542726;22;20289;-77
2024/04/22 04:44:26;;;;;;;1.20;1.10;;;;;;;5.49;64.85;101842.56;6540962;22;20217;-77
2024/04/22 04:46:59;;;;;;;0.90;0.70;;;;;;;5.89;62.79;101850.38;6541593;22;20272;-78
2024/04/22 04:49:27;;;;;;;2.35;1.08;;;;;;;6.77;57.78;101844.28;6535751;22;20221;-78
2024/04/22 04:51:59;;;;;;;1.15;0.60;;;;;;;6.62;56.96;101840.44;6530612;22;20225;-79
2024/04/22 04:54:27;;;;;;;2.00;1.90;;;;;;;6.40;58.46;101845.25;6532816;22;20221;-78
2024/04/22 04:56:58;;;;;;;0.80;0.50;;;;;;;6.55;57.80;101838.34;6531890;22;20253;-79
2024/04/22 04:59:26;;;;;;;0.90;0.60;;;;;;;6.60;57.08;101850.47;6537526;22;20226;-79
2024/04/22 05:02:00;;;;;;;1.65;1.15;;;;;;;6.48;58.14;101850.72;6542326;22;20225;-79
2024/04/22 05:04:28;;;;;;;3.25;0.88;;;;;;;7.29;55.77;101854.13;6533965;22;20252;-78
2024/04/22 05:06:59;;;;;;;1.88;1.73;;;;;;;7.80;53.90;101847.00;6489118;22;20267;-80
2024/04/22 05:09:29;;;;;;;0.90;0.70;;;;;;;7.77;54.11;101847.34;6542725;22;20218;-80
2024/04/22 05:12:00;;;;;;;1.27;1.00;;;;;;;8.13;52.90;101848.00;6541482;22;20237;-79
2024/04/22 05:14:28;;;;;;;0.93;0.80;;;;;;;6.46;55.75;101844.66;6501133;22;20247;-78
2024/04/22 05:17:04;;;;;;;0.80;0.50;;;;;;;4.69;62.19;101843.84;6495179;22;20308;-80
2024/04/22 05:19:33;;;;;;;1.55;0.80;;;;;;;3.26;71.04;101845.06;6541687;22;20224;-80
2024/04/22 05:22:04;;;;;;;3.75;0.90;;;;;;;2.53;75.85;101845.09;6497210;22;20229;-81
2024/04/22 05:24:33;;;;;;;1.35;1.02;;;;;;;2.10;79.95;101851.28;6544515;22;20652;-79
2024/04/22 05:27:04;;;;;;;1.33;1.23;;;;;;;1.90;81.76;101844.03;6548380;22;20285;-82
2024/04/22 05:29:33;;;;;;;3.92;0.93;;;;;;;1.76;84.83;101844.28;6540885;22;20225;-78
2024/04/22 05:32:08;;;;;;;1.52;1.13;;;;;;;1.96;84.67;101837.34;6543116;22;20225;-79
2024/04/22 05:37:29;;;;;;;1.35;1.25;;;;;;;2.06;83.87;101836.50;6537743;22;20237;-80
2024/04/22 05:40:00;;;;;;;0.80;0.50;;;;;;;2.17;82.88;101839.16;6532508;22;20226;-81
2024/04/22 05:42:35;;;;;;;0.90;0.60;;;;;;;2.12;83.16;101836.00;6532959;22;20222;-80
2024/04/22 05:45:07;;;;;;;0.80;0.55;;;;;;;2.16;83.56;101848.13;6533156;22;20221;-79
2024/04/22 05:47:42;;;;;;;1.00;0.90;;;;;;;2.39;83.56;101843.56;6534639;22;20280;-79
2024/04/22 05:50:14;;;;;;;0.90;0.75;;;;;;;2.33;82.44;101837.88;6533224;22;20343;-80
2024/04/22 05:52:45;;;;;;;1.60;1.50;;;;;;;2.43;83.18;101842.34;6529953;22;20311;-79
2024/04/22 05:55:14;;;;;;;0.90;0.75;;;;;;;2.34;82.46;101834.22;6530105;22;20304;-80
2024/04/22 05:57:48;;;;;;;1.90;1.58;;;;;;;2.32;82.76;101841.53;6532099;22;20624;-80
2024/04/22 06:00:18;;;;;;;1.25;1.15;;;;;;;2.54;82.61;101838.78;6532081;22;20225;-80
2024/04/22 06:02:54;;;;;;;1.60;1.42;;;;;;;2.62;82.41;101838.97;6488135;22;20229;-79
2024/04/22 06:05:23;;;;;;;2.08;1.35;;;;;;;2.65;81.32;101837.88;6539529;22;20236;-79
2024/04/22 06:07:56;;;;;;;1.90;1.10;;;;;;;2.82;79.91;101842.66;6491260;22;20241;-81
2024/04/22 06:10:25;;;;;;;1.52;1.15;;;;;;;3.00;79.27;101833.91;6489915;22;20315;-81
2024/04/22 06:12:56;;;;;;;1.42;0.95;;;;;;;3.08;78.37;101841.31;6531835;22;20263;-81
2024/04/22 06:15:24;;;;;;;1.30;1.00;;;;;;;3.06;77.85;101838.75;6531287;22;20248;-80
2024/04/22 06:17:58;;;;;;;1.02;0.82;;;;;;;3.04;77.34;101838.06;6532814;22;20745;-80
2024/04/22 06:20:26;;;;;;;2.42;2.22;;;;;;;3.35;77.32;101846.09;6486840;22;20229;-80
2024/04/22 06:22:57;;;;;;;1.27;0.75;;;;;;;3.62;76.00;101851.75;6539751;22;20263;-80
2024/04/22 06:25:28;;;;;;;1.73;1.10;;;;;;;3.81;73.78;101843.81;6531554;22;20221;-80
2024/04/22 06:27:59;;;;;;;1.08;0.90;;;;;;;3.94;72.35;101846.22;6530914;22;20233;-80
2024/04/22 06:30:28;;;;;;;2.95;2.20;;;;;;;3.96;71.28;101843.44;6530020;22;20728;-82
2024/04/22 06:33:01;;;;;;;4.55;3.03;;;;;;;3.89;71.38;101846.63;6530048;22;20271;-79
2024/04/22 06:35:30;;;;;;;1.52;1.25;;;;;;;4.05;70.78;101842.59;6529603;22;20689;-79
2024/04/22 06:38:01;;;;;;;2.40;1.73;;;;;;;4.13;70.25;101840.94;6529430;22;20282;-79
2024/04/22 06:40:32;;;;;;;1.75;1.60;;;;;;;4.22;69.35;101844.59;6532832;22;20294;-81
2024/04/22 06:43:05;;;;;;;1.17;0.98;;;;;;;4.08;69.59;101845.00;6531501;22;20225;-81
2024/04/22 06:45:33;;;;;;;2.10;1.00;;;;;;;4.24;69.55;101846.19;6489079;22;20237;-79
2024/04/22 06:48:08;;;;;;;1.60;0.98;;;;;;;4.65;68.21;101846.91;6486286;22;20686;-80
2024/04/22 06:50:36;;;;;;;1.15;1.05;;;;;;;5.33;65.21;101843.16;6537673;22;20678;-81
2024/04/22 06:53:07;;;;;;;1.55;1.00;;;;;;;5.54;62.69;101846.50;6539865;22;20259;-81
2024/04/22 06:55:35;;;;;;;1.00;0.77;;;;;;;5.24;61.78;101844.88;6539472;22;20271;-79
2024/04/22 06:58:06;;;;;;;0.90;0.65;;;;;;;5.63;62.11;101840.25;6534690;22;20284;-79
2024/04/22 07:00:35;;;;;;;0.90;0.80;;;;;;;5.94;59.61;101843.56;6531897;22;20631;-79
2024/04/22 07:03:09;;;;;;;0.80;0.50;;;;;;;6.30;59.38;101832.84;6531564;22;20229;-80
2024/04/22 07:05:37;;;;;;;1.27;1.15;;;;;;;6.62;57.93;101835.91;6486796;22;20251;-80
2024/04/22 07:08:09;;;;;;;0.98;0.80;;;;;;;6.19;57.78;101844.69;6487984;22;20242;-80
2024/04/22 07:10:37;;;;;;;1.90;1.10;;;;;;;6.16;57.46;101836.91;6529501;22;20229;-79
2024/04/22 07:13:08;;;;;;;1.05;0.95;;;;;;;6.05;56.88;101845.19;6532370;22;20258;-79
2024/04/22 07:15:40;;;;;;;1.02;0.75;;;;;;;5.74;58.51;101835.69;6535421;22;20225;-79
2024/04/22 07:18:14;;;;;;;1.80;1.10;;;;;;;5.78;59.74;101837.94;6535868;22;20324;-79
2024/04/22 07:20:43;;;;;;;2.15;1.95;;;;;;;6.16;60.04;101842.28;6542308;22;20217;-80
2024/04/22 07:23:18;;;;;;;1.60;1.20;;;;;;;6.15;57.68;101840.59;6495797;22;20240;-80
2024/04/22 07:25:54;;;;;;;2.95;2.20;;;;;;;6.37;56.62;101842.88;6540259;22;20310;-80
2024/04/22 07:28:29;;;;;;;6.85;2.47;;;;;;;6.21;56.72;101845.38;6541481;22;20252;-80
2024/04/22 07:30:59;;;;;;;1.13;1.02;;;;;;;6.01;57.09;101846.47;6496434;22;20244;-80
2024/04/22 07:33:33;;;;;;;0.93;0.70;;;;;;;6.33;57.00;101849.56;6549789;22;20217;-81
2024/04/22 07:36:12;;;;;;;1.55;1.27;;;;;;;6.14;57.22;101844.31;6552717;22;20220;-82
2024/04/22 07:38:46;;;;;;;0.90;0.57;;;;;;;6.49;55.74;101841.63;6553506;22;20225;-79
2024/04/22 07:41:14;;;;;;;1.15;0.70;;;;;;;6.35;54.97;101842.16;6497102;22;20264;-81
2024/04/22 07:43:45;;;;;;;0.90;0.75;;;;;;;5.82;56.31;101843.84;6494410;22;20230;-79
2024/04/22 07:46:14;;;;;;;1.70;1.60;;;;;;;6.02;56.45;101840.09;6539222;22;20694;-81
2024/04/22 07:48:48;;;;;;;1.40;1.10;;;;;;;6.09;55.53;101841.22;6535687;22;20640;-78
2024/04/22 07:51:23;;;;;;;1.00;0.82;;;;;;;6.23;55.88;101838.00;6533964;22;20315;-79
2024/04/22 07:54:07;;;;;;;5.60;1.17;;;;;;;6.48;55.74;101837.28;6531224;22;20682;-79
2024/04/22 07:56:35;;;;;;;0.90;0.73;;;;;;;6.85;54.37;101839.81;6533283;22;20271;-79
2024/04/22 07:59:09;;;;;;;1.35;1.25;;;;;;;6.78;54.99;101838.72;6536863;22;20727;-78
2024/04/22 08:01:37;;;;;;;0.82;0.65;;;;;;;6.62;55.48;101848.50;6535116;22;20268;-79
2024/04/22 08:04:23;;;;;;;1.15;1.05;;;;;;;6.17;56.74;101846.66;6536918;22;20263;-79
2024/04/22 08:07:03;;;;;;;1.00;0.65;;;;;;;6.38;56.10;101849.94;6535897;22;20233;-79
2024/04/22 08:09:34;;;;;;;0.80;0.60;;;;;;;6.53;56.06;101845.72;6496399;22;20233;-80
2024/04/22 08:12:02;;;;;;;2.97;2.05;;;;;;;5.77;57.18;101848.81;6544483;22;20249;-80
2024/04/22 08:14:34;;;;;;;0.80;0.60;;;;;;;6.06;58.13;101850.41;6543582;22;20268;-78
2024/04/22 08:17:03;;;;;;;1.00;0.60;;;;;;;6.52;55.80;101837.81;6554429;22;20244;-79
2024/04/22 08:19:38;;;;;;;1.20;1.10;;;;;;;6.71;55.15;101844.88;6546454;22;20221;-78
2024/04/22 08:22:06;;;;;;;1.00;0.60;;;;;;;6.66;54.96;101850.72;6548699;22;20221;-79
2024/04/22 08:24:37;;;;;;;1.13;0.95;;;;;;;6.33;54.97;101843.31;6547873;22;20270;-77
2024/04/22 08:27:07;;;;;;;1.50;1.40;;;;;;;6.31;55.50;101846.16;6551219;22;20229;-78
2024/04/22 08:29:39;;;;;;;0.90;0.73;;;;;;;6.40;55.68;101844.41;6552947;22;20217;-78
2024/04/22 08:32:08;;;;;;;1.40;1.15;;;;;;;6.35;56.35;101839.47;6553207;22;20229;-79
2024/04/22 08:34:43;;;;;;;0.90;0.70;;;;;;;6.66;55.10;101844.50;6552473;22;20217;-80
2024/04/22 08:37:12;;;;;;;1.33;0.90;;;;;;;6.31;55.42;101839.94;6508786;22;20252;-80
2024/04/22 08:39:44;;;;;;;0.90;0.80;;;;;;;5.91;57.55;101840.28;6551159;22;20304;-81
2024/04/22 08:42:14;;;;;;;2.10;1.05;;;;;;;6.01;58.58;101843.78;6553067;22;20213;-79
2024/04/22 08:44:46;;;;;;;2.00;1.27;;;;;;;5.58;61.77;101839.84;6550972;22;20297;-79
2024/04/22 08:47:14;;;;;;;1.00;0.85;;;;;;;5.59;61.78;101841.53;6549997;22;20222;-79
2024/04/22 08:49:48;;;;;;;0.90;0.70;;;;;;;5.62;64.02;101843.94;6550038;22;20274;-79
2024/04/22 08:52:17;;;;;;;3.33;2.53;;;;;;;5.71;63.11;101836.00;6546946;22;20244;-79
2024/04/22 08:54:48;;;;;;;4.75;2.95;;;;;;;6.16;62.51;101839.59;6550351;22;20256;-80
2024/04/22 08:57:17;;;;;;;25.15;18.23;;;;;;;6.87;60.48;101832.41;6545190;22;20623;-82
2024/04/22 08:59:48;;;;;;;1.95;1.60;;;;;;;7.14;57.92;101820.69;6540717;22;20264;-80
2024/04/22 09:02:16;;;;;;;0.90;0.60;;;;;;;7.98;56.66;101822.66;6544721;22;20217;-80
2024/04/22 09:04:50;;;;;;;3.42;3.13;;;;;;;8.01;54.96;101828.56;6543237;22;20264;-79
2024/04/22 09:07:19;;;;;;;1.70;1.02;;;;;;;7.52;54.51;101816.72;6534608;22;20343;-80
2024/04/22 09:09:50;;;;;;;1.60;0.65;;;;;;;7.07;52.95;101826.88;6539191;22;20293;-81
2024/04/22 09:12:39;;;;;;;0.90;0.70;;;;;;;7.03;54.50;101820.09;6534045;22;20336;-79
2024/04/22 09:15:10;;;;;;;4.35;3.70;;;;;;;7.17;53.91;101833.81;6529463;22;20568;-81
2024/04/22 09:17:42;;;;;;;7.38;4.90;;;;;;;6.57;56.23;101824.75;6532307;22;20288;-80
2024/04/22 09:20:21;;;;;;;1.60;1.50;;;;;;;6.57;56.82;101823.91;6533914;22;20537;-80
2024/04/22 09:22:50;;;;;;;6.65;4.00;;;;;;;6.29;58.33;101829.34;6538149;22;20259;-80
2024/04/22 09:25:21;;;;;;;2.17;1.98;;;;;;;6.14;61.42;101827.31;6498008;22;20264;-79
2024/04/22 09:27:51;;;;;;;1.70;1.60;;;;;;;6.31;62.02;101824.66;6545081;22;20233;-79
2024/04/22 09:30:23;;;;;;;0.90;0.70;;;;;;;6.20;62.47;101827.53;6545726;22;20265;-79
2024/04/22 09:32:59;;;;;;;2.92;1.85;;;;;;;6.57;60.45;101830.13;6548483;22;20293;-82
2024/04/22 09:35:33;;;;;;;1.73;1.60;;;;;;;6.75;58.66;101825.59;6492933;22;20259;-80
2024/04/22 09:38:03;;;;;;;1.20;0.73;;;;;;;6.64;57.48;101824.97;6546059;22;20256;-82
2024/04/22 09:40:35;;;;;;;1.83;1.67;;;;;;;7.01;57.47;101822.94;6550039;22;20221;-81
2024/04/22 09:43:04;;;;;;;0.82;0.55;;;;;;;7.10;55.92;101826.53;6501783;22;20256;-80
2024/04/22 09:45:36;;;;;;;1.50;1.40;;;;;;;7.10;56.06;101822.00;6533513;22;20221;-80
2024/04/22 09:48:07;;;;;;;1.23;1.00;;;;;;;6.95;56.05;101819.03;6536058;22;20293;-80
2024/04/22 09:54:13;;;;;;;1.38;1.27;;;;;;;7.48;54.26;101819.91;6515414;22;20255;-79
2024/04/22 10:10:03;;;;;;;0.90;0.70;;;;;;;6.84;56.40;101818.44;6495076;22;20293;-80
2024/04/22 10:17:56;;;;;;;1.45;1.00;;;;;;;6.02;65.38;101819.47;6474324;22;20252;-78
2024/04/22 10:44:37;;;;;;;1.02;0.80;;;;;;;5.22;92.97;101817.38;6382386;22;20250;-79
2024/04/22 10:48:44;;;;;;;1.45;1.33;;;;;;;5.86;87.38;101810.31;6327865;22;20374;-80
2024/04/22 11:09:19;;;;;;;1.52;1.40;;;;;;;5.86;83.73;101807.63;6072955;23;20318;-79
2024/04/22 11:17:19;;;;;;;0.90;0.63;;;;;;;6.53;72.32;101797.31;5954330;23;20398;-78
2024/04/22 11:25:09;;;;;;;0.80;0.60;;;;;;;7.33;65.57;101790.00;6011881;23;20232;-78
2024/04/22 11:27:46;;;;;;;1.10;0.60;;;;;;;7.76;65.19;101791.75;6151906;23;20288;-78
2024/04/22 11:31:12;;;;;;;0.90;0.70;;;;;;;7.01;69.38;101781.72;6232292;22;20290;-78
2024/04/22 11:34:28;;;;;;;1.10;0.80;;;;;;;7.52;66.03;101788.94;6287541;22;20230;-78
2024/04/22 11:40:43;;;;;;;1.67;0.75;;;;;;;7.79;63.10;101772.56;6375320;22;20271;-76
2024/04/22 11:51:04;;;;;;;1.00;0.77;;;;;;;8.61;57.63;101772.63;6490240;22;20221;-80
2024/04/22 11:53:32;;;;;;;2.75;0.80;;;;;;;8.63;58.84;101775.13;6536507;22;20296;-79
2024/04/22 11:56:06;;;;;;;0.90;0.57;;;;;;;8.01;60.92;101773.81;6546594;22;20277;-80
2024/04/22 11:58:39;;;;;;;1.20;0.95;;;;;;;7.18;64.90;101773.59;6535144;22;20736;-75
2024/04/22 12:01:11;;;;;;;0.95;0.80;;;;;;;6.92;64.32;101768.19;6531600;22;20233;-77
2024/04/22 12:03:43;;;;;;;1.65;0.93;;;;;;;7.18;63.81;101760.13;6529831;22;20233;-80
2024/04/22 12:06:17;;;;;;;1.02;0.75;;;;;;;7.49;61.21;101760.50;6528877;22;20260;-77
2024/04/22 12:08:50;;;;;;;1.00;0.60;;;;;;;7.43;60.36;101750.34;6529996;22;20255;-78
2024/04/22 12:11:27;;;;;;;1.70;0.85;;;;;;;7.46;59.56;101751.88;6529213;22;20494;-78
2024/04/22 12:13:57;;;;;;;1.00;0.88;;;;;;;7.61;59.17;101750.25;6483335;22;20313;-78
2024/04/22 12:16:30;;;;;;;0.80;0.50;;;;;;;7.55;56.17;101740.16;6530930;22;20221;-79
2024/04/22 12:19:05;;;;;;;1.00;0.52;;;;;;;7.54;56.41;101746.53;6533166;22;20221;-78
2024/04/22 12:21:37;;;;;;;1.90;1.00;;;;;;;7.91;56.12;101741.63;6531840;22;20221;-78
2024/04/22 12:24:06;;;;;;;1.70;1.13;;;;;;;8.04;56.07;101741.13;6529262;22;20222;-78
2024/04/22 12:26:39;;;;;;;4.30;0.90;;;;;;;8.24;55.91;101742.50;6530057;22;20272;-79
2024/04/22 12:29:07;;;;;;;1.70;0.80;;;;;;;7.90;56.52;101734.53;6484394;22;20229;-77
2024/04/22 12:31:38;;;;;;;1.92;0.73;;;;;;;8.04;55.89;101733.03;6484552;22;20307;-78
2024/04/22 12:34:08;;;;;;;1.50;1.13;;;;;;;8.36;54.80;101721.50;6528469;22;20277;-78
2024/04/22 12:36:43;;;;;;;1.63;0.77;;;;;;;8.54;53.62;101727.56;6488792;22;20316;-78
2024/04/22 12:39:14;;;;;;;2.38;0.77;;;;;;;8.71;54.46;101723.88;6534636;22;20281;-78
2024/04/22 12:41:48;;;;;;;3.45;1.48;;;;;;;9.49;51.40;101724.00;6534570;22;20264;-78
2024/04/22 12:44:17;;;;;;;0.90;0.70;;;;;;;10.60;48.56;101719.13;6532635;22;20331;-79
2024/04/22 12:52:23;;;;;;;1.17;0.77;;;;;;;9.76;46.46;101710.03;6532148;22;20256;-78
2024/04/22 12:54:55;;;;;;;0.90;0.70;;;;;;;9.53;48.33;101717.25;6531789;22;20452;-78
2024/04/22 12:57:28;;;;;;;2.00;1.05;;;;;;;9.35;50.67;101712.06;6531371;22;20464;-78
2024/04/22 13:00:06;;;;;;;4.63;0.80;;;;;;;9.10;50.92;101708.59;6528958;22;20787;-78
2024/04/22 13:02:38;;;;;;;1.20;0.80;;;;;;;8.83;50.94;101713.56;6532169;22;20483;-78
2024/04/22 13:05:09;;;;;;;0.90;0.60;;;;;;;7.65;58.21;101709.34;6531132;22;20508;-78
2024/04/22 13:07:40;;;;;;;1.00;0.80;;;;;;;6.92;61.96;101718.94;6529910;22;20319;-81
2024/04/22 13:10:11;;;;;;;1.20;0.80;;;;;;;6.45;65.79;101719.25;6486181;22;20229;-78
2024/04/22 13:12:44;;;;;;;0.90;0.70;;;;;;;5.91;71.68;101722.09;6530237;22;20295;-79
2024/04/22 13:15:12;;;;;;;0.95;0.80;;;;;;;5.67;77.03;101723.47;6531755;22;20780;-80
2024/04/22 13:17:45;;;;;;;0.80;0.50;;;;;;;5.54;80.59;101722.16;6532198;22;20241;-78
2024/04/22 13:20:17;;;;;;;0.80;0.50;;;;;;;5.31;81.66;101732.44;6529756;22;20272;-79
2024/04/22 13:22:45;;;;;;;1.42;0.88;;;;;;;5.42;81.59;101737.59;6530057;22;20307;-77
2024/04/22 13:25:16;;;;;;;2.95;0.98;;;;;;;5.50;81.43;101726.97;6529259;22;20230;-78
2024/04/22 13:27:48;;;;;;;1.35;1.25;;;;;;;5.89;79.57;101724.09;6528141;22;20284;-77
2024/04/22 13:30:19;;;;;;;2.55;1.15;;;;;;;6.35;79.84;101725.72;6530408;22;20557;-78
2024/04/22 13:32:50;;;;;;;1.15;1.02;;;;;;;6.85;77.81;101720.56;6529498;22;20950;-79
2024/04/22 13:35:21;;;;;;;1.00;0.70;;;;;;;7.30;74.78;101721.19;6529587;22;20221;-78
2024/04/22 13:37:49;;;;;;;4.93;1.20;;;;;;;7.48;73.57;101714.84;6528924;22;20553;-77
2024/04/22 13:40:20;;;;;;;0.90;0.60;;;;;;;7.84;71.10;101714.47;6530471;22;20664;-78
2024/04/22 13:42:51;;;;;;;1.75;1.15;;;;;;;7.90;71.64;101712.13;6528960;22;20674;-78
2024/04/22 13:45:22;;;;;;;0.90;0.70;;;;;;;8.29;70.70;101705.09;6530384;22;20264;-78
2024/04/22 13:47:50;;;;;;;2.28;0.88;;;;;;;8.19;68.58;101707.97;6547006;21;20230;-82
2024/04/22 13:50:21;;;;;;;0.80;0.60;;;;;;;7.90;69.23;101702.19;6553754;21;20267;-79
2024/04/22 13:52:49;;;;;;;1.60;1.20;;;;;;;8.06;68.05;101706.78;6554240;21;20334;-83
2024/04/22 13:55:20;;;;;;;0.93;0.77;;;;;;;8.20;67.45;101709.66;6555495;21;20213;-80
2024/04/22 13:57:51;;;;;;;2.30;1.58;;;;;;;8.40;64.94;101706.66;6554010;21;20252;-79
2024/04/22 14:00:22;;;;;;;1.10;0.85;;;;;;;8.50;64.09;101705.50;6489887;22;20241;-79
2024/04/22 14:02:50;;;;;;;1.52;1.05;;;;;;;8.55;64.30;101702.28;6534024;22;20698;-79
2024/04/22 14:05:21;;;;;;;1.10;0.95;;;;;;;8.44;63.79;101706.16;6485918;22;20229;-79
2024/04/22 14:07:50;;;;;;;4.57;1.20;;;;;;;8.39;62.84;101704.97;6488694;22;20241;-79
2024/04/22 14:10:21;;;;;;;1.33;0.77;;;;;;;8.19;62.23;101702.56;6530882;22;20226;-78
2024/04/22 14:12:52;;;;;;;1.20;1.02;;;;;;;8.23;61.75;101703.06;6529008;22;20222;-80
2024/04/22 14:15:23;;;;;;;1.38;1.00;;;;;;;8.20;61.10;101704.25;6533946;22;20241;-79
2024/04/22 14:18:11;;;;;;;1.13;0.93;;;;;;;8.05;63.88;101699.69;6534406;22;20233;-81
2024/04/22 14:20:41;;;;;;;1.25;1.00;;;;;;;8.36;61.79;101703.47;6528536;22;20233;-79
2024/04/22 14:23:10;;;;;;;1.45;0.90;;;;;;;8.49;59.83;101709.19;6483154;22;20229;-80
2024/04/22 14:25:42;;;;;;;0.90;0.57;;;;;;;8.42;60.04;101710.91;6529724;22;20225;-80
2024/04/22 14:28:13;;;;;;;1.42;0.73;;;;;;;8.61;58.24;101707.84;6530321;22;20264;-82
2024/04/22 14:30:44;;;;;;;2.70;1.50;;;;;;;8.94;56.33;101714.06;6487195;22;20255;-79
2024/04/22 14:33:15;;;;;;;6.00;1.52;;;;;;;8.80;58.06;101712.06;6531716;22;20225;-78
2024/04/22 14:35:49;;;;;;;0.90;0.60;;;;;;;9.05;55.92;101712.84;6531360;22;20268;-79
2024/04/22 14:38:17;;;;;;;2.22;1.20;;;;;;;9.23;55.86;101716.16;6530875;22;20342;-81
2024/04/22 14:40:48;;;;;;;0.90;0.60;;;;;;;9.59;55.08;101705.72;6532734;22;20232;-81
2024/04/22 14:43:19;;;;;;;1.00;0.60;;;;;;;9.27;54.32;101711.25;6488112;22;20251;-79
2024/04/22 14:45:50;;;;;;;4.20;2.00;;;;;;;9.09;55.53;101711.50;6534226;22;20259;-79
2024/04/22 14:48:19;;;;;;;1.30;0.68;;;;;;;9.13;55.26;101710.97;6487784;22;20341;-78
2024/04/22 14:50:53;;;;;;;0.90;0.70;;;;;;;8.90;57.13;101706.47;6537691;22;20289;-79
2024/04/22 14:53:21;;;;;;;1.30;1.13;;;;;;;8.59;56.95;101704.47;6532259;22;20229;-78
2024/04/22 14:55:52;;;;;;;1.30;0.80;;;;;;;8.23;58.46;101709.31;6530208;22;20252;-79
2024/04/22 14:58:23;;;;;;;1.17;1.05;;;;;;;7.71;60.53;101708.72;6533680;22;20292;-80
2024/04/22 15:00:55;;;;;;;0.90;0.50;;;;;;;6.75;66.17;101709.06;6487659;22;20254;-78
2024/04/22 15:03:23;;;;;;;3.58;1.20;;;;;;;6.10;71.95;101709.34;6489499;22;20281;-78
2024/04/22 15:05:54;;;;;;;1.45;0.95;;;;;;;5.28;78.73;101724.66;6536735;22;20546;-77